WetterOnline ( http://www.wetteronline.de )

Wetter aktuell Rostock

Aktuelles Wetter: Rostock-Warnemünde (10m)

6-stündlich | Neueste Meldungen
Ortszeit Temperatur Wetter
So, 22.07. 14:00 27.3° C wolkig
So, 22.07. 8:00 21.3° C wolkig
So, 22.07. 2:00 18.8° C wolkig
Sa, 21.07. 20:00 22.7° C leicht bewölkt
Sa, 21.07. 14:00 23.0° C leicht bewölkt
Sa, 21.07. 8:00 20.8° C wolkenlos
Sa, 21.07. 2:00 17.7° C bedeckt
Fr, 20.07. 20:00 21.4° C leicht bewölkt
Ortszeit Temperatur Wetter
So, 22.07. 18:30 23.7° C bewölkt
So, 22.07. 18:20 23.7° C bewölkt
So, 22.07. 18:10 23.9° C bedeckt
So, 22.07. 18:00 23.8° C bewölkt
So, 22.07. 17:50 23.8° C bewölkt
So, 22.07. 17:40 23.9° C wolkig
So, 22.07. 17:30 24.3° C leicht bewölkt
So, 22.07. 17:00 24.3° C wolkenlos
So, 22.07. 16:30 24.8° C wolkenlos
So, 22.07. 16:00 24.7° C wolkenlos
So, 22.07. 15:30 25.1° C wolkenlos
Ortszeit Relative Feuchte Sichtweite
So, 22.07. 14:00 46% 14 km
So, 22.07. 8:00 57% 19 km
So, 22.07. 2:00 69% 17 km
Sa, 21.07. 20:00 64% 25 km
Sa, 21.07. 14:00 56% 15 km
Sa, 21.07. 8:00 68% 28 km
Sa, 21.07. 2:00 65% 24 km
Fr, 20.07. 20:00 62% 30 km
Ortszeit Relative Feuchte Sichtweite
So, 22.07. 18:30 70% 13 km
So, 22.07. 18:20 70% -
So, 22.07. 18:10 75% -
So, 22.07. 18:00 76% 12 km
So, 22.07. 17:50 76% -
So, 22.07. 17:40 73% -
So, 22.07. 17:30 70% 13 km
So, 22.07. 17:00 71% 14 km
So, 22.07. 16:30 70% 10 km
So, 22.07. 16:00 69% 10 km
So, 22.07. 15:30 62% 10 km
Ortszeit Niederschlagsmenge Niederschlagsart
So, 22.07. 14:00 0.0 l/m2 in 6 Std. -
So, 22.07. 8:00 0.0 l/m2 in 12 Std. -
So, 22.07. 2:00 0.0 l/m2 in 6 Std. -
Sa, 21.07. 20:00 0.0 l/m2 in 12 Std. -
Sa, 21.07. 14:00 0.0 l/m2 in 6 Std. -
Sa, 21.07. 8:00 0.0 l/m2 in 12 Std. -
Sa, 21.07. 2:00 0.0 l/m2 in 6 Std. -
Fr, 20.07. 20:00 0.0 l/m2 in 12 Std. -
Ortszeit Niederschlagsmenge Niederschlagsart
So, 22.07. 18:30 0.0 l/m2 in 1 Std. -
So, 22.07. 18:20 keine Meldung -
So, 22.07. 18:10 keine Meldung -
So, 22.07. 18:00 0.0 l/m2 in 1 Std. -
So, 22.07. 17:50 keine Meldung -
So, 22.07. 17:40 keine Meldung -
So, 22.07. 17:30 0.0 l/m2 in 1 Std. -
So, 22.07. 17:00 0.0 l/m2 in 1 Std. -
So, 22.07. 16:30 0.0 l/m2 in 1 Std. -
So, 22.07. 16:00 0.0 l/m2 in 1 Std. -
So, 22.07. 15:30 0.0 l/m2 in 1 Std. -
Ortszeit Stärke Spitze Richtung
km/h Bft. km/h Grad Sektor
So, 22.07. 14:00 7 2 29 130° SO
So, 22.07. 8:00 7 2 18 170° S
So, 22.07. 2:00 7 2 11 150° SO
Sa, 21.07. 20:00 4 1 14 330° NW
Sa, 21.07. 14:00 9 2 15 10° N
Sa, 21.07. 8:00 0 0 14 - -
Sa, 21.07. 2:00 7 2 22 200° S
Fr, 20.07. 20:00 18 3 29 280° W
Ortszeit Stärke Spitze Richtung
km/h Bft. km/h Grad Sektor
So, 22.07. 18:30 6 1 11 310° NW
So, 22.07. 18:20 6 1 - 310° NW
So, 22.07. 18:10 7 2 - 310° NW
So, 22.07. 18:00 7 2 14 320° NW
So, 22.07. 17:50 7 2 - 320° NW
So, 22.07. 17:40 11 2 - 320° NW
So, 22.07. 17:30 7 2 14 320° NW
So, 22.07. 17:00 11 2 20 330° NW
So, 22.07. 16:30 15 3 20 330° NW
So, 22.07. 16:00 17 3 22 340° N
So, 22.07. 15:30 17 3 22 320° NW
Ortszeit Untergrenze Bedeckung Gattung
total tief tief mittel hoch
So, 22.07. 14:00 2100 m 8/8 2/8 - - -
So, 22.07. 8:00 2700 m 8/8 3/8 - - -
So, 22.07. 2:00 3000 m 5/8 5/8 - - -
Sa, 21.07. 20:00 9000 m 3/8 0/8 - - -
Sa, 21.07. 14:00 8100 m 7/8 0/8 - - -
Sa, 21.07. 8:00 - 0/8 0/8 - - -
Sa, 21.07. 2:00 - 8/8 - - - -
Fr, 20.07. 20:00 9000 m 8/8 0/8 - - -
Ortszeit Bedeckungsgrad in Achtel und Wolkenuntergrenze
So, 22.07. 18:30 7(3000m)
So, 22.07. 18:20 7(3000m)
So, 22.07. 18:10 8(3000m)
So, 22.07. 18:00 7(3000m)
So, 22.07. 17:50 7(3000m)
So, 22.07. 17:40 6(3000m)
So, 22.07. 17:30 1(2700m)
So, 22.07. 17:00 1(2700m)
So, 22.07. 16:30 keine Wolken
So, 22.07. 16:00 keine Wolken
So, 22.07. 15:30 keine Wolken
Ortszeit Luftdruck NN (hPa) Tendenz (hPa in 3 Std.)
So, 22.07. 14:00 1012 + 0,1
So, 22.07. 8:00 1012 - 0,1
So, 22.07. 2:00 1012 - 0,1
Sa, 21.07. 20:00 1012 - 0,6
Sa, 21.07. 14:00 1013 - 0,4
Sa, 21.07. 8:00 1013 + 0,3
Sa, 21.07. 2:00 1013 0,0
Fr, 20.07. 20:00 1014 - 0,8
Ortszeit Luftdruck NN (hPa) Tendenz (hPa in 3 Std.)
So, 22.07. 18:30 1012 + 0,5
So, 22.07. 18:20 1012 keine Meldung
So, 22.07. 18:10 1012 keine Meldung
So, 22.07. 18:00 1012 + 0,6
So, 22.07. 17:50 1012 keine Meldung
So, 22.07. 17:40 1012 keine Meldung
So, 22.07. 17:30 1012 + 0,6
So, 22.07. 17:00 1012 + 0,1
So, 22.07. 16:30 1012 - 0,1
So, 22.07. 16:00 1012 - 0,3
So, 22.07. 15:30 1012 - 0,1
Ortszeit Schneehöhe (cm)
So, 22.07. 14:00 -
So, 22.07. 8:00 -
So, 22.07. 2:00 -
Sa, 21.07. 20:00 -
Sa, 21.07. 14:00 -
Sa, 21.07. 8:00 -
Sa, 21.07. 2:00 -
Fr, 20.07. 20:00 -
Ortszeit Schneehöhe (cm)
So, 22.07. 18:30 -
So, 22.07. 18:20 -
So, 22.07. 18:10 -
So, 22.07. 18:00 -
So, 22.07. 17:50 -
So, 22.07. 17:40 -
So, 22.07. 17:30 -
So, 22.07. 17:00 -
So, 22.07. 16:30 -
So, 22.07. 16:00 -
So, 22.07. 15:30 -
Link zu dieser Seite / Seite empfehlen

Das Wetter in ...